Time;durP1;ratioP1;P1;durP2;ratioP2;P2;SDS_P1;SDS_P2;PMS_P1;PMS_P2;Temp;Humidity;BMP_temperature;BMP_pressure;BME280_temperature;BME280_humidity;BME280_pressure;Samples;Min_cycle;Max_cycle;Signal;HPM_P1;HPM_P2
2020/12/19 00:00:47;;;;;;;8.65;5.97;;;9.00;99.90;;;;;;2106104;28;20468;-76
2020/12/19 00:01:47;;;;;;;10.85;6.53;;;8.90;99.90;;;;;;2113773;28;20466;-76
2020/12/19 00:02:48;;;;;;;8.50;6.70;;;8.90;99.90;;;;;;2114378;28;20028;-79
2020/12/19 00:03:48;;;;;;;7.07;6.38;;;9.00;99.90;;;;;;2123231;27;20601;-76
2020/12/19 00:04:49;;;;;;;6.65;5.95;;;9.00;99.90;;;;;;2123453;27;20034;-77
2020/12/19 00:05:49;;;;;;;8.30;7.10;;;9.00;99.90;;;;;;2123360;27;20046;-78
2020/12/19 00:06:50;;;;;;;7.07;6.38;;;9.00;99.90;;;;;;2123574;27;20159;-78
2020/12/19 00:07:50;;;;;;;8.38;7.40;;;9.00;99.90;;;;;;2123103;27;20147;-77
2020/12/19 00:08:51;;;;;;;8.18;7.00;;;9.00;99.90;;;;;;2123292;27;20474;-78
2020/12/19 00:09:52;;;;;;;7.78;6.40;;;9.00;99.90;;;;;;2114110;28;20094;-77
2020/12/19 00:10:53;;;;;;;7.63;6.53;;;9.00;99.90;;;;;;2114461;28;20028;-79
2020/12/19 00:11:53;;;;;;;7.40;6.63;;;9.00;99.90;;;;;;2122694;27;20139;-76
2020/12/19 00:12:59;;;;;;;7.55;6.75;;;9.00;99.90;;;;;;2114273;28;20053;-78
2020/12/19 00:13:59;;;;;;;7.28;6.18;;;9.00;99.90;;;;;;2114810;27;20030;-77
2020/12/19 00:15:00;;;;;;;9.05;6.90;;;9.00;99.90;;;;;;2123009;27;20495;-79
2020/12/19 00:16:01;;;;;;;6.43;5.50;;;9.00;99.90;;;;;;2113939;28;20086;-75
2020/12/19 00:17:01;;;;;;;7.63;6.03;;;9.00;99.90;;;;;;2114286;28;20023;-76
2020/12/19 00:18:02;;;;;;;9.48;7.03;;;9.00;99.90;;;;;;2123118;27;20027;-78
2020/12/19 00:19:05;;;;;;;7.18;6.32;;;9.00;99.90;;;;;;2114072;28;20031;-79
2020/12/19 00:20:06;;;;;;;8.15;6.28;;;9.00;99.90;;;;;;2114270;27;20478;-78
2020/12/19 00:21:07;;;;;;;6.63;5.85;;;9.00;99.90;;;;;;2113969;28;20020;-78
2020/12/19 00:22:07;;;;;;;9.07;6.18;;;9.00;99.90;;;;;;2113510;28;20422;-78
2020/12/19 00:23:08;;;;;;;9.45;6.20;;;9.00;99.90;;;;;;2122221;27;20019;-78
2020/12/19 00:24:08;;;;;;;7.30;5.63;;;9.00;99.90;;;;;;2122677;27;20053;-78
2020/12/19 00:25:09;;;;;;;8.07;7.07;;;9.00;99.90;;;;;;2123183;27;20065;-76
2020/12/19 00:26:10;;;;;;;7.80;5.40;;;9.10;99.90;;;;;;2113992;28;20028;-79
2020/12/19 00:27:11;;;;;;;7.20;5.63;;;9.10;99.90;;;;;;2113976;28;20019;-78
2020/12/19 00:28:11;;;;;;;7.03;5.72;;;9.10;99.90;;;;;;2123184;27;20030;-76
2020/12/19 00:29:12;;;;;;;8.23;6.05;;;9.10;99.90;;;;;;2114152;28;20491;-77
2020/12/19 00:30:12;;;;;;;6.53;5.80;;;9.10;99.90;;;;;;2113984;28;20357;-80
2020/12/19 00:31:13;;;;;;;10.60;6.28;;;9.10;99.90;;;;;;2122896;27;20023;-79
2020/12/19 00:32:14;;;;;;;7.50;6.15;;;9.10;99.90;;;;;;2122842;27;20028;-78
2020/12/19 00:33:14;;;;;;;7.68;5.78;;;9.10;99.90;;;;;;2123139;27;20212;-79
2020/12/19 00:34:16;;;;;;;6.28;5.68;;;9.10;99.90;;;;;;2122985;27;20031;-77
2020/12/19 00:35:17;;;;;;;10.23;5.68;;;9.10;99.90;;;;;;2123085;27;20474;-76
2020/12/19 00:36:18;;;;;;;7.43;5.65;;;9.10;99.90;;;;;;2123138;27;20023;-76
2020/12/19 00:37:18;;;;;;;6.72;5.78;;;9.10;99.90;;;;;;2122833;27;20023;-78
2020/12/19 00:38:19;;;;;;;6.47;5.55;;;9.10;99.90;;;;;;2123308;27;20047;-78
2020/12/19 00:39:19;;;;;;;6.97;5.35;;;9.10;99.90;;;;;;2122723;27;20023;-77
2020/12/19 00:40:20;;;;;;;6.25;5.63;;;9.10;99.90;;;;;;2123255;27;20069;-78
2020/12/19 00:41:23;;;;;;;8.82;5.78;;;9.10;99.90;;;;;;2123009;27;20020;-79
2020/12/19 00:42:24;;;;;;;7.70;5.07;;;9.10;99.90;;;;;;2122987;27;20023;-76
2020/12/19 00:43:24;;;;;;;7.53;5.63;;;9.20;99.90;;;;;;2113836;28;20059;-76
2020/12/19 00:44:25;;;;;;;9.75;5.57;;;9.10;99.90;;;;;;2114214;28;20055;-77
2020/12/19 00:45:26;;;;;;;7.07;5.55;;;9.20;99.90;;;;;;2122972;27;20023;-78
2020/12/19 00:46:27;;;;;;;6.43;5.55;;;9.20;99.90;;;;;;2122925;27;20015;-78
2020/12/19 00:47:27;;;;;;;5.63;4.80;;;9.20;99.90;;;;;;2122766;27;20028;-77
2020/12/19 00:48:28;;;;;;;7.75;5.18;;;9.20;99.90;;;;;;2123057;27;20463;-78
2020/12/19 00:49:28;;;;;;;6.45;5.32;;;9.20;99.90;;;;;;2122919;27;20019;-78
2020/12/19 00:50:29;;;;;;;5.95;5.35;;;9.20;99.90;;;;;;2123069;27;20033;-77
2020/12/19 00:51:30;;;;;;;6.45;5.68;;;9.20;99.90;;;;;;2113347;28;20019;-78
2020/12/19 00:52:33;;;;;;;6.25;5.32;;;9.20;99.90;;;;;;2105462;28;20017;-76
2020/12/19 00:53:34;;;;;;;6.60;5.10;;;9.30;99.90;;;;;;2114101;27;20020;-77
2020/12/19 00:54:35;;;;;;;5.15;4.65;;;9.20;99.90;;;;;;2114023;28;20399;-78
2020/12/19 00:55:35;;;;;;;5.85;4.57;;;9.20;99.90;;;;;;2113695;28;20255;-79
2020/12/19 00:56:36;;;;;;;7.32;5.03;;;9.30;99.90;;;;;;2123025;27;20031;-79
2020/12/19 00:57:38;;;;;;;5.80;4.97;;;9.30;99.90;;;;;;2113607;28;20250;-80
2020/12/19 00:58:38;;;;;;;5.25;4.75;;;9.30;99.90;;;;;;2114141;28;20242;-79
2020/12/19 00:59:39;;;;;;;5.07;4.57;;;9.30;99.90;;;;;;2122434;27;20332;-77
2020/12/19 01:00:39;;;;;;;7.03;5.57;;;9.30;99.90;;;;;;2123050;27;20050;-78
2020/12/19 01:01:40;;;;;;;6.03;5.15;;;9.30;99.90;;;;;;2112464;28;20159;-80
2020/12/19 01:02:40;;;;;;;5.93;4.60;;;9.30;99.90;;;;;;2113393;28;20015;-79
2020/12/19 01:03:41;;;;;;;6.63;4.95;;;9.30;99.90;;;;;;2122794;27;20076;-78
2020/12/19 01:04:42;;;;;;;7.25;5.05;;;9.30;99.90;;;;;;2122893;27;20015;-77
2020/12/19 01:05:43;;;;;;;5.30;4.80;;;9.30;99.90;;;;;;2122739;27;20027;-80
2020/12/19 01:06:43;;;;;;;7.03;5.05;;;9.30;99.90;;;;;;2123100;27;20023;-79
2020/12/19 01:07:44;;;;;;;6.00;4.78;;;9.30;99.90;;;;;;2122634;27;20068;-77
2020/12/19 01:08:46;;;;;;;5.72;4.88;;;9.30;99.90;;;;;;2122906;27;20030;-78
2020/12/19 01:09:47;;;;;;;5.18;4.68;;;9.30;99.90;;;;;;2113679;28;20542;-76
2020/12/19 01:10:47;;;;;;;6.40;4.93;;;9.30;99.90;;;;;;2113596;28;20027;-77
2020/12/19 01:11:48;;;;;;;5.50;4.68;;;9.30;99.90;;;;;;2122445;27;20027;-76
2020/12/19 01:12:48;;;;;;;4.93;4.50;;;9.30;99.90;;;;;;2122905;27;20054;-77
2020/12/19 01:13:50;;;;;;;5.00;4.60;;;9.30;99.90;;;;;;2113768;28;20118;-78
2020/12/19 01:14:51;;;;;;;7.22;4.80;;;9.30;99.90;;;;;;2113826;27;20379;-79
2020/12/19 01:15:52;;;;;;;5.50;4.78;;;9.30;99.90;;;;;;2122775;27;20027;-78
2020/12/19 01:16:52;;;;;;;5.63;4.78;;;9.30;99.90;;;;;;2122787;27;20034;-79
2020/12/19 01:17:53;;;;;;;5.78;4.95;;;9.30;99.90;;;;;;2113431;28;20036;-78
2020/12/19 01:18:55;;;;;;;5.85;5.00;;;9.30;99.90;;;;;;2113948;28;20051;-80
2020/12/19 01:19:55;;;;;;;4.95;4.45;;;9.30;99.90;;;;;;2113615;28;20119;-76
2020/12/19 01:20:56;;;;;;;7.05;4.93;;;9.30;99.90;;;;;;2105124;28;20024;-76
2020/12/19 01:21:57;;;;;;;5.85;5.25;;;9.30;99.90;;;;;;2113095;28;20128;-76
2020/12/19 01:22:57;;;;;;;5.93;5.07;;;9.30;99.90;;;;;;2123100;27;20246;-77
2020/12/19 01:23:58;;;;;;;6.03;4.72;;;9.30;99.90;;;;;;2113655;28;20122;-76
2020/12/19 01:24:59;;;;;;;6.97;5.20;;;9.30;99.90;;;;;;2105119;28;20043;-77
2020/12/19 01:26:02;;;;;;;5.20;4.68;;;9.30;99.90;;;;;;2113911;28;20111;-78
2020/12/19 01:27:04;;;;;;;5.28;4.78;;;9.30;99.90;;;;;;2122494;27;20015;-77
2020/12/19 01:28:04;;;;;;;6.70;5.50;;;9.40;99.90;;;;;;2113526;28;20128;-79
2020/12/19 01:29:05;;;;;;;5.72;4.95;;;9.40;99.90;;;;;;2113704;28;20059;-76
2020/12/19 01:30:05;;;;;;;5.55;5.00;;;9.40;99.90;;;;;;2122586;27;20054;-78
2020/12/19 01:31:09;;;;;;;7.57;5.63;;;9.40;99.90;;;;;;2113672;28;20065;-76
2020/12/19 01:32:10;;;;;;;6.38;5.32;;;9.40;99.90;;;;;;2113599;28;20543;-76
2020/12/19 01:33:10;;;;;;;6.65;4.90;;;9.40;99.90;;;;;;2113357;28;20030;-78
2020/12/19 01:34:11;;;;;;;8.02;5.75;;;9.40;99.90;;;;;;2113592;28;20467;-77
2020/12/19 01:35:11;;;;;;;5.60;5.10;;;9.40;99.90;;;;;;2113667;28;20028;-79
2020/12/19 01:36:17;;;;;;;7.07;5.40;;;9.40;99.90;;;;;;2105291;28;20097;-77
2020/12/19 01:37:17;;;;;;;5.70;5.18;;;9.40;99.90;;;;;;2114052;27;20531;-77
2020/12/19 01:38:18;;;;;;;8.15;5.57;;;9.40;99.90;;;;;;2121958;27;20024;-77
2020/12/19 01:39:19;;;;;;;7.35;5.20;;;9.40;99.90;;;;;;2113220;28;20038;-76
2020/12/19 01:40:19;;;;;;;5.60;5.03;;;9.40;99.90;;;;;;2113469;28;20252;-76
2020/12/19 01:41:21;;;;;;;6.93;6.03;;;9.50;99.90;;;;;;2122582;27;20051;-78
2020/12/19 01:42:22;;;;;;;5.88;5.18;;;9.40;99.90;;;;;;2122665;27;20015;-78
2020/12/19 01:43:23;;;;;;;6.30;5.25;;;9.40;99.90;;;;;;2121896;27;20127;-77
2020/12/19 01:44:23;;;;;;;5.30;4.80;;;9.40;99.90;;;;;;2121955;27;20117;-76
2020/12/19 01:45:24;;;;;;;8.32;6.32;;;9.40;99.90;;;;;;2122505;27;20027;-77
2020/12/19 01:46:53;;;;;;;7.03;5.95;;;9.40;99.90;;;;;;2122493;27;20031;-77
2020/12/19 01:47:55;;;;;;;6.35;5.45;;;9.40;99.90;;;;;;2122243;27;20479;-77
2020/12/19 01:48:58;;;;;;;6.45;5.63;;;9.40;99.90;;;;;;2122493;27;20023;-79
2020/12/19 01:50:00;;;;;;;6.32;5.72;;;9.40;99.90;;;;;;2122302;27;20019;-78
2020/12/19 01:51:00;;;;;;;7.05;5.80;;;9.50;99.90;;;;;;2113500;28;20258;-78
2020/12/19 01:52:02;;;;;;;9.15;6.30;;;9.40;99.90;;;;;;2113213;28;20025;-78
2020/12/19 01:53:03;;;;;;;6.40;5.40;;;9.40;99.90;;;;;;2122976;27;20242;-78
2020/12/19 01:54:07;;;;;;;8.38;5.90;;;9.50;99.90;;;;;;2122481;27;20475;-76
2020/12/19 01:55:08;;;;;;;6.60;5.53;;;9.40;99.90;;;;;;2113588;28;20111;-76
2020/12/19 01:56:10;;;;;;;7.22;6.03;;;9.50;99.90;;;;;;2113264;28;20490;-76
2020/12/19 01:57:13;;;;;;;9.07;6.50;;;9.50;99.90;;;;;;2122019;27;20026;-78
2020/12/19 01:58:13;;;;;;;7.18;5.65;;;9.40;99.90;;;;;;2122026;27;20015;-78
2020/12/19 01:59:15;;;;;;;7.15;6.15;;;9.50;99.90;;;;;;2113435;28;20020;-77
2020/12/19 02:00:16;;;;;;;7.03;5.70;;;9.40;99.90;;;;;;2113134;28;20387;-76
2020/12/19 02:01:17;;;;;;;6.65;6.05;;;9.40;99.90;;;;;;2121779;27;20023;-76
2020/12/19 02:02:23;;;;;;;6.88;5.80;;;9.40;99.90;;;;;;2112878;28;20061;-77
2020/12/19 02:03:23;;;;;;;7.10;6.10;;;9.40;99.90;;;;;;2114165;27;20030;-78
2020/12/19 02:04:25;;;;;;;8.93;6.30;;;9.40;99.90;;;;;;2113116;28;20257;-78
2020/12/19 02:05:26;;;;;;;6.43;5.78;;;9.40;99.90;;;;;;2113640;27;20024;-79
2020/12/19 02:06:28;;;;;;;9.27;6.03;;;9.40;99.90;;;;;;2113271;28;20407;-77
2020/12/19 02:07:28;;;;;;;6.97;5.95;;;9.40;99.90;;;;;;2104833;28;20085;-77
2020/12/19 02:08:29;;;;;;;8.30;5.75;;;9.40;99.90;;;;;;2113342;28;20053;-76
2020/12/19 02:09:35;;;;;;;7.10;5.75;;;9.40;99.90;;;;;;2122346;27;20554;-78
2020/12/19 02:10:36;;;;;;;6.93;6.25;;;9.40;99.90;;;;;;2122317;27;20027;-76
2020/12/19 02:11:37;;;;;;;6.50;5.85;;;9.40;99.90;;;;;;2121825;27;20015;-78
2020/12/19 02:12:37;;;;;;;6.57;5.93;;;9.40;99.90;;;;;;2122142;27;20031;-78
2020/12/19 02:13:38;;;;;;;6.70;6.00;;;9.40;99.90;;;;;;2112928;28;20019;-78
2020/12/19 02:14:39;;;;;;;7.00;6.25;;;9.40;99.90;;;;;;2113177;28;20040;-80
2020/12/19 02:15:45;;;;;;;6.55;5.55;;;9.40;99.90;;;;;;2122496;27;20015;-78
2020/12/19 02:16:54;;;;;;;7.78;5.85;;;9.40;99.90;;;;;;2122337;27;20047;-80
2020/12/19 02:17:54;;;;;;;7.13;6.07;;;9.40;99.90;;;;;;2122056;27;20268;-77
2020/12/19 02:18:55;;;;;;;7.72;6.00;;;9.40;99.90;;;;;;2122181;27;20039;-77
2020/12/19 02:19:55;;;;;;;5.90;5.30;;;9.40;99.90;;;;;;2112968;28;20019;-77
2020/12/19 02:20:56;;;;;;;6.40;5.78;;;9.40;99.90;;;;;;2113212;28;20020;-79
2020/12/19 02:21:57;;;;;;;8.00;6.30;;;9.40;99.90;;;;;;2121790;27;20019;-77
2020/12/19 02:23:00;;;;;;;7.32;6.43;;;9.40;99.90;;;;;;2122372;27;20512;-79
2020/12/19 02:24:01;;;;;;;8.13;6.80;;;9.40;99.90;;;;;;2122084;27;20094;-77
2020/12/19 02:25:02;;;;;;;6.72;5.60;;;9.40;99.90;;;;;;2122193;27;20018;-76
2020/12/19 02:26:02;;;;;;;15.32;6.97;;;9.40;99.90;;;;;;2122348;27;20018;-79
2020/12/19 02:27:03;;;;;;;7.15;6.40;;;9.40;99.90;;;;;;2112871;28;20032;-80
2020/12/19 02:28:06;;;;;;;8.70;6.28;;;9.40;99.90;;;;;;2113152;28;20672;-76
2020/12/19 02:29:07;;;;;;;7.05;6.28;;;9.40;99.90;;;;;;2122281;27;20019;-77
2020/12/19 02:30:08;;;;;;;7.97;6.60;;;9.40;99.90;;;;;;2112841;28;20024;-77
2020/12/19 02:31:08;;;;;;;6.93;6.05;;;9.40;99.90;;;;;;2113201;28;20027;-78
2020/12/19 02:32:09;;;;;;;6.25;5.65;;;9.40;99.90;;;;;;2112879;28;20028;-77
2020/12/19 02:33:10;;;;;;;8.80;5.82;;;9.40;99.90;;;;;;2113156;28;20047;-77
2020/12/19 02:34:11;;;;;;;7.75;6.15;;;9.30;99.90;;;;;;2121979;27;20097;-76
2020/12/19 02:35:11;;;;;;;7.95;6.25;;;9.30;99.90;;;;;;2113158;28;20106;-79
2020/12/19 02:36:12;;;;;;;7.40;6.10;;;9.30;99.90;;;;;;2112979;28;20073;-77
2020/12/19 02:37:12;;;;;;;7.00;6.13;;;9.30;99.90;;;;;;2112860;28;20101;-77
2020/12/19 02:38:13;;;;;;;7.25;6.50;;;9.30;99.90;;;;;;2113204;28;20070;-77
2020/12/19 02:39:14;;;;;;;8.23;6.30;;;9.30;99.90;;;;;;2122195;27;20416;-76
2020/12/19 02:40:14;;;;;;;7.15;6.45;;;9.30;99.90;;;;;;2122133;27;20030;-79
2020/12/19 02:41:15;;;;;;;8.73;6.45;;;9.30;99.90;;;;;;2122046;27;20024;-76
2020/12/19 02:42:16;;;;;;;6.43;5.68;;;9.30;99.90;;;;;;2121696;27;20015;-77
2020/12/19 02:43:17;;;;;;;7.57;6.78;;;9.30;99.90;;;;;;2113029;28;20036;-75
2020/12/19 02:44:21;;;;;;;7.15;6.40;;;9.30;99.90;;;;;;2112788;28;20023;-78
2020/12/19 02:45:21;;;;;;;7.85;7.05;;;9.30;99.90;;;;;;2120308;27;20019;-77
2020/12/19 02:46:22;;;;;;;7.45;6.53;;;9.30;99.90;;;;;;2104134;28;20020;-77
2020/12/19 02:47:23;;;;;;;7.65;6.85;;;9.30;99.90;;;;;;2104586;28;20506;-78
2020/12/19 02:48:24;;;;;;;8.93;6.38;;;9.30;99.90;;;;;;2121971;27;20023;-76
2020/12/19 02:49:24;;;;;;;6.43;5.78;;;9.30;99.90;;;;;;2121906;27;20027;-78
2020/12/19 02:50:25;;;;;;;6.97;6.28;;;9.30;99.90;;;;;;2122213;27;20446;-77
2020/12/19 02:51:25;;;;;;;7.50;6.32;;;9.30;99.90;;;;;;2121535;27;20054;-78
2020/12/19 02:52:26;;;;;;;7.65;6.50;;;9.30;99.90;;;;;;2121952;27;20058;-78
2020/12/19 02:53:26;;;;;;;6.57;5.97;;;9.30;99.90;;;;;;2122065;27;20038;-76
2020/12/19 02:54:27;;;;;;;7.85;6.50;;;9.30;99.90;;;;;;2122156;27;20056;-78
2020/12/19 02:55:27;;;;;;;6.75;6.05;;;9.30;99.90;;;;;;2122015;27;20317;-77
2020/12/19 02:56:28;;;;;;;7.88;6.22;;;9.30;99.90;;;;;;2122104;27;20098;-77
2020/12/19 02:57:29;;;;;;;9.23;6.32;;;9.30;99.90;;;;;;2121991;27;20249;-79
2020/12/19 02:58:29;;;;;;;7.55;6.10;;;9.30;99.90;;;;;;2121938;27;20031;-77
2020/12/19 02:59:30;;;;;;;7.22;6.13;;;9.30;99.90;;;;;;2121871;27;20076;-78
2020/12/19 03:00:30;;;;;;;7.50;6.50;;;9.30;99.90;;;;;;2122178;27;20092;-77
2020/12/19 03:01:31;;;;;;;7.47;6.78;;;9.20;99.90;;;;;;2121461;27;20026;-77
2020/12/19 03:02:32;;;;;;;9.30;6.72;;;9.20;99.90;;;;;;2121824;27;20033;-77
2020/12/19 03:03:32;;;;;;;8.40;6.88;;;9.20;99.90;;;;;;2113020;28;20020;-79
2020/12/19 03:04:33;;;;;;;7.60;6.80;;;9.20;99.90;;;;;;2113021;28;20253;-79
2020/12/19 03:05:33;;;;;;;8.20;7.10;;;9.20;99.90;;;;;;2121946;27;20054;-78
2020/12/19 03:06:34;;;;;;;8.15;7.35;;;9.20;99.90;;;;;;2122161;27;20072;-77
2020/12/19 03:07:35;;;;;;;10.25;6.93;;;9.20;99.90;;;;;;2121873;27;20024;-80
2020/12/19 03:08:35;;;;;;;7.28;6.57;;;9.20;99.90;;;;;;2122032;27;20250;-77
2020/12/19 03:09:36;;;;;;;9.57;7.38;;;9.20;99.90;;;;;;2122055;27;20379;-77
2020/12/19 03:10:36;;;;;;;7.90;7.10;;;9.20;99.90;;;;;;2121841;27;20046;-78
2020/12/19 03:11:37;;;;;;;6.63;5.97;;;9.20;99.90;;;;;;2112329;28;20359;-77
2020/12/19 03:12:37;;;;;;;7.70;6.30;;;9.20;99.90;;;;;;2113078;28;20027;-76
2020/12/19 03:13:38;;;;;;;9.35;6.95;;;9.20;99.90;;;;;;2112671;28;20024;-78
2020/12/19 03:14:38;;;;;;;7.78;6.90;;;9.20;99.90;;;;;;2112826;28;20471;-76
2020/12/19 03:15:39;;;;;;;10.45;7.00;;;9.20;99.90;;;;;;2121331;27;20019;-78
2020/12/19 03:16:40;;;;;;;7.22;6.28;;;9.20;99.90;;;;;;2112842;28;20052;-79
2020/12/19 03:17:40;;;;;;;7.50;6.72;;;9.20;99.90;;;;;;2112703;28;20019;-78
2020/12/19 03:18:41;;;;;;;7.15;6.47;;;9.20;99.90;;;;;;2112859;28;20483;-79
2020/12/19 03:19:41;;;;;;;7.47;6.45;;;9.20;99.90;;;;;;2112476;28;20099;-79
2020/12/19 03:20:42;;;;;;;7.40;6.63;;;9.20;99.90;;;;;;2121623;28;20026;-75
2020/12/19 03:21:42;;;;;;;8.18;7.03;;;9.20;99.90;;;;;;2121455;28;20478;-77
2020/12/19 03:22:43;;;;;;;8.80;7.18;;;9.30;99.90;;;;;;2121638;28;20023;-76
2020/12/19 03:23:44;;;;;;;8.07;7.15;;;9.30;99.90;;;;;;2121883;28;20027;-78
2020/12/19 03:24:44;;;;;;;8.43;6.70;;;9.20;99.90;;;;;;2122526;27;20487;-77
2020/12/19 03:25:45;;;;;;;7.88;6.60;;;9.30;99.90;;;;;;2115436;28;20443;-77
2020/12/19 03:26:45;;;;;;;11.00;7.45;;;9.20;99.90;;;;;;2115624;28;20173;-77
2020/12/19 03:27:46;;;;;;;9.60;6.03;;;9.30;99.90;;;;;;2124909;27;20023;-78
2020/12/19 03:28:47;;;;;;;7.57;6.18;;;9.30;99.90;;;;;;2124787;27;20035;-77
2020/12/19 03:29:47;;;;;;;6.82;5.93;;;9.20;99.90;;;;;;2115468;28;20104;-79
2020/12/19 03:30:48;;;;;;;6.57;5.93;;;9.30;99.90;;;;;;2115509;28;20073;-78
2020/12/19 03:31:48;;;;;;;7.00;6.30;;;9.30;99.90;;;;;;2124416;27;20027;-78
2020/12/19 03:32:53;;;;;;;7.05;6.35;;;9.30;99.90;;;;;;2124436;27;20131;-77
2020/12/19 03:33:53;;;;;;;9.32;6.57;;;9.30;99.90;;;;;;2124799;27;20019;-79
2020/12/19 03:34:54;;;;;;;7.95;6.95;;;9.20;99.90;;;;;;2124616;27;20545;-77
2020/12/19 03:35:55;;;;;;;8.82;6.85;;;9.30;99.90;;;;;;2115447;28;20488;-76
2020/12/19 03:36:55;;;;;;;8.52;6.57;;;9.30;99.90;;;;;;2107109;28;20051;-77
2020/12/19 03:37:56;;;;;;;7.82;7.03;;;9.20;99.90;;;;;;2115460;28;20019;-78
2020/12/19 03:38:56;;;;;;;7.63;6.57;;;9.30;99.90;;;;;;2124516;27;20019;-77
2020/12/19 03:39:57;;;;;;;7.05;6.38;;;9.30;99.90;;;;;;2124648;27;20031;-78
2020/12/19 03:40:58;;;;;;;10.48;6.60;;;9.20;99.90;;;;;;2124591;27;20019;-78
2020/12/19 03:41:58;;;;;;;7.88;6.47;;;9.20;99.90;;;;;;2124136;27;20015;-79
2020/12/19 03:42:59;;;;;;;8.18;7.22;;;9.20;99.90;;;;;;2124403;27;20102;-78
2020/12/19 03:44:00;;;;;;;9.07;6.88;;;9.20;99.90;;;;;;2124493;27;20410;-78
2020/12/19 03:45:02;;;;;;;9.38;6.72;;;9.20;99.90;;;;;;2115591;28;20376;-78
2020/12/19 03:46:03;;;;;;;7.93;6.82;;;9.20;99.90;;;;;;2115827;27;20123;-77
2020/12/19 03:47:03;;;;;;;10.38;7.18;;;9.20;99.90;;;;;;2124617;27;20429;-77
2020/12/19 03:48:04;;;;;;;9.15;6.78;;;9.20;99.90;;;;;;2124674;27;20023;-76
2020/12/19 03:49:05;;;;;;;7.95;7.15;;;9.20;99.90;;;;;;2124706;27;20023;-78
2020/12/19 03:50:06;;;;;;;7.28;6.57;;;9.20;99.90;;;;;;2115544;28;20081;-76
2020/12/19 03:51:06;;;;;;;8.18;7.38;;;9.30;99.90;;;;;;2106756;28;20081;-78
2020/12/19 03:52:07;;;;;;;8.68;7.78;;;9.30;99.90;;;;;;2115145;28;20491;-76
2020/12/19 03:53:07;;;;;;;9.93;7.55;;;9.30;99.90;;;;;;2124780;27;20520;-78
2020/12/19 03:54:08;;;;;;;7.88;6.82;;;9.30;99.90;;;;;;2115331;28;20521;-78
2020/12/19 03:55:09;;;;;;;7.82;7.05;;;9.30;99.90;;;;;;2115593;28;20023;-79
2020/12/19 03:56:09;;;;;;;8.82;7.07;;;9.30;99.90;;;;;;2124648;27;20031;-77
2020/12/19 03:57:10;;;;;;;8.40;7.53;;;9.30;99.90;;;;;;2115315;28;20020;-79
2020/12/19 03:58:10;;;;;;;9.20;7.32;;;9.30;99.90;;;;;;2115481;28;20020;-77
2020/12/19 03:59:11;;;;;;;10.75;8.23;;;9.30;99.90;;;;;;2124868;27;20019;-79
2020/12/19 04:00:11;;;;;;;9.18;7.85;;;9.30;99.90;;;;;;2124274;27;20075;-77
2020/12/19 04:01:12;;;;;;;9.25;8.00;;;9.30;99.90;;;;;;2124509;27;20095;-77
2020/12/19 04:02:12;;;;;;;7.85;7.05;;;9.30;99.90;;;;;;2114925;28;20114;-76
2020/12/19 04:03:13;;;;;;;10.10;7.28;;;9.30;99.90;;;;;;2115561;28;20018;-79
2020/12/19 04:04:13;;;;;;;9.35;7.43;;;9.30;99.90;;;;;;2115385;28;20042;-77
2020/12/19 04:05:14;;;;;;;8.82;8.02;;;9.30;99.90;;;;;;2115602;28;20016;-76
2020/12/19 04:06:15;;;;;;;8.65;7.63;;;9.30;99.90;;;;;;2115249;28;20450;-78
2020/12/19 04:07:15;;;;;;;11.68;7.85;;;9.30;99.90;;;;;;2115433;28;20077;-77
2020/12/19 04:08:16;;;;;;;8.15;7.05;;;9.30;99.90;;;;;;2115230;28;20027;-77
2020/12/19 04:09:16;;;;;;;9.93;8.48;;;9.30;99.90;;;;;;2115375;28;20158;-79
2020/12/19 04:10:17;;;;;;;8.25;6.95;;;9.30;99.90;;;;;;2106657;28;20066;-78
2020/12/19 04:11:17;;;;;;;10.55;7.63;;;9.20;99.90;;;;;;2106968;28;20061;-80
2020/12/19 04:12:18;;;;;;;9.70;7.57;;;9.30;99.90;;;;;;2106517;28;20103;-80
2020/12/19 04:13:18;;;;;;;8.13;7.32;;;9.30;99.90;;;;;;2115487;28;20535;-78
2020/12/19 04:14:19;;;;;;;9.43;7.75;;;9.30;99.90;;;;;;2124374;27;20019;-79
2020/12/19 04:15:23;;;;;;;11.40;8.90;;;9.20;99.90;;;;;;2124646;27;20064;-78
2020/12/19 04:16:23;;;;;;;9.43;8.00;;;9.30;99.90;;;;;;2115237;28;20238;-79
2020/12/19 04:17:24;;;;;;;9.40;8.48;;;9.30;99.90;;;;;;2106924;28;20192;-76
2020/12/19 04:18:25;;;;;;;10.70;8.77;;;9.20;99.90;;;;;;2115467;28;20542;-77
2020/12/19 04:19:26;;;;;;;9.60;8.13;;;9.30;99.90;;;;;;2124506;27;20027;-77
2020/12/19 04:20:26;;;;;;;9.02;7.85;;;9.30;99.90;;;;;;2124278;27;20110;-79
2020/12/19 04:21:27;;;;;;;9.73;8.07;;;9.30;99.90;;;;;;2124141;27;20117;-79
2020/12/19 04:22:27;;;;;;;11.40;8.73;;;9.30;99.90;;;;;;2124432;27;20047;-79
2020/12/19 04:23:28;;;;;;;8.93;8.02;;;9.20;99.90;;;;;;2115561;28;20016;-77
2020/12/19 04:24:29;;;;;;;9.32;8.27;;;9.30;99.90;;;;;;2106796;28;20016;-80
2020/12/19 04:25:30;;;;;;;9.27;8.15;;;9.30;99.90;;;;;;2115583;28;20016;-78
2020/12/19 04:26:30;;;;;;;9.27;8.48;;;9.30;99.90;;;;;;2124516;27;20042;-77
2020/12/19 04:27:31;;;;;;;11.02;9.13;;;9.20;99.90;;;;;;2115219;28;20023;-77
2020/12/19 04:28:32;;;;;;;10.40;8.00;;;9.20;99.90;;;;;;2115250;28;20048;-77
2020/12/19 04:29:32;;;;;;;11.10;8.45;;;9.20;99.90;;;;;;2124477;27;20050;-76
2020/12/19 04:30:33;;;;;;;10.30;8.88;;;9.30;99.90;;;;;;2124368;27;20386;-78
2020/12/19 04:31:33;;;;;;;10.07;8.35;;;9.20;99.90;;;;;;2123957;27;20261;-77
2020/12/19 04:32:35;;;;;;;9.82;8.75;;;9.20;99.90;;;;;;2115341;28;20524;-79
2020/12/19 04:33:35;;;;;;;9.15;8.13;;;9.20;99.90;;;;;;2107002;28;20410;-77
2020/12/19 04:34:36;;;;;;;9.45;8.45;;;9.30;99.90;;;;;;2106879;28;20027;-78
2020/12/19 04:35:37;;;;;;;12.38;7.82;;;9.30;99.90;;;;;;2106709;28;20044;-79
2020/12/19 04:36:37;;;;;;;9.18;8.25;;;9.30;99.90;;;;;;2114212;28;20287;-77
2020/12/19 04:37:38;;;;;;;10.10;9.05;;;9.20;99.90;;;;;;2122273;27;20035;-76
2020/12/19 04:38:38;;;;;;;9.23;8.27;;;9.30;99.90;;;;;;2123075;27;20034;-80
2020/12/19 04:39:39;;;;;;;9.30;7.95;;;9.20;99.90;;;;;;2122959;27;20027;-76
2020/12/19 04:40:39;;;;;;;10.38;8.90;;;9.30;99.90;;;;;;2113756;28;20019;-77
2020/12/19 04:41:40;;;;;;;10.98;8.90;;;9.20;99.90;;;;;;2113414;28;20020;-78
2020/12/19 04:42:42;;;;;;;13.07;9.35;;;9.20;99.90;;;;;;2123214;27;20023;-78
2020/12/19 04:43:43;;;;;;;10.63;9.00;;;9.20;99.90;;;;;;2114003;28;20019;-78
2020/12/19 04:44:45;;;;;;;10.00;8.95;;;9.20;99.90;;;;;;2113813;28;20482;-79
2020/12/19 04:45:48;;;;;;;9.25;8.25;;;9.20;99.90;;;;;;2114376;27;20024;-78
2020/12/19 04:46:49;;;;;;;9.82;8.40;;;9.20;99.90;;;;;;2113649;28;20111;-77
2020/12/19 04:47:50;;;;;;;9.63;7.78;;;9.20;99.90;;;;;;2113935;28;20024;-78
2020/12/19 04:48:51;;;;;;;11.23;8.90;;;9.20;99.90;;;;;;2123166;27;20451;-77
2020/12/19 04:49:52;;;;;;;12.82;9.68;;;9.20;99.90;;;;;;2122845;27;20031;-78
2020/12/19 04:50:53;;;;;;;10.95;9.13;;;9.20;99.90;;;;;;2122905;27;20026;-77
2020/12/19 04:51:54;;;;;;;10.90;9.40;;;9.20;99.90;;;;;;2113397;28;20031;-78
2020/12/19 04:52:54;;;;;;;9.70;8.70;;;9.20;99.90;;;;;;2113896;28;20023;-79
2020/12/19 04:53:55;;;;;;;10.50;8.95;;;9.20;99.90;;;;;;2122957;27;20035;-77
2020/12/19 04:54:56;;;;;;;9.57;8.43;;;9.20;99.90;;;;;;2123100;27;20057;-77
2020/12/19 04:55:59;;;;;;;9.70;8.70;;;9.20;99.90;;;;;;2122779;27;20023;-78
2020/12/19 04:57:00;;;;;;;11.40;9.13;;;9.20;99.90;;;;;;2113699;28;20031;-78
2020/12/19 04:58:01;;;;;;;10.70;8.93;;;9.20;99.90;;;;;;2113896;28;20094;-77
2020/12/19 04:59:03;;;;;;;13.65;9.20;;;9.20;99.90;;;;;;2123164;27;20019;-79
2020/12/19 05:00:05;;;;;;;10.20;9.00;;;9.20;99.90;;;;;;2113692;28;20455;-80
2020/12/19 05:01:06;;;;;;;13.05;9.90;;;9.10;99.90;;;;;;2114001;28;20065;-78
2020/12/19 05:02:06;;;;;;;10.75;9.55;;;9.10;99.90;;;;;;2113660;27;20077;-77
2020/12/19 05:03:08;;;;;;;11.95;9.35;;;9.10;99.90;;;;;;2122829;27;20026;-79
2020/12/19 05:04:12;;;;;;;11.15;9.00;;;9.20;99.90;;;;;;2122879;27;20146;-78
2020/12/19 05:05:13;;;;;;;10.38;9.38;;;9.20;99.90;;;;;;2113815;28;20493;-78
2020/12/19 05:06:17;;;;;;;11.32;9.05;;;9.10;99.90;;;;;;2113761;28;20020;-80
2020/12/19 05:07:17;;;;;;;10.07;8.75;;;9.10;99.90;;;;;;2122858;27;20387;-77
2020/12/19 05:08:18;;;;;;;13.75;9.90;;;9.10;99.90;;;;;;2123032;27;20023;-78
2020/12/19 05:09:19;;;;;;;12.27;9.52;;;9.10;99.90;;;;;;2122767;27;20471;-77
2020/12/19 05:10:19;;;;;;;12.10;9.98;;;9.10;99.90;;;;;;2113622;28;20463;-79
2020/12/19 05:11:20;;;;;;;11.82;8.93;;;9.10;99.90;;;;;;2113833;28;20030;-76
2020/12/19 05:12:21;;;;;;;9.65;8.68;;;9.10;99.90;;;;;;2122458;27;20387;-78
2020/12/19 05:13:22;;;;;;;11.80;9.13;;;9.10;99.90;;;;;;2122793;27;20186;-78
2020/12/19 05:14:23;;;;;;;10.88;9.38;;;9.10;99.90;;;;;;2122820;27;20019;-76
2020/12/19 05:15:23;;;;;;;10.25;8.98;;;9.10;99.90;;;;;;2122792;27;20430;-78
2020/12/19 05:16:24;;;;;;;10.70;9.60;;;9.10;99.90;;;;;;2122806;27;20027;-76
2020/12/19 05:17:25;;;;;;;10.13;9.05;;;9.10;99.90;;;;;;2122898;27;20448;-75
2020/12/19 05:18:27;;;;;;;10.40;9.10;;;9.10;99.90;;;;;;2122927;27;20027;-79
2020/12/19 05:19:28;;;;;;;11.40;9.50;;;9.10;99.90;;;;;;2113574;28;20178;-76
2020/12/19 05:20:30;;;;;;;12.20;9.57;;;9.10;99.90;;;;;;2113713;28;20061;-79
2020/12/19 05:21:31;;;;;;;13.48;10.60;;;9.10;99.90;;;;;;2122398;27;20019;-79